createdAt,value
2018-11-20T00:01:40.111Z,0.00
2018-11-20T00:04:26.950Z,0.10
2018-11-20T00:07:14.650Z,0.10
2018-11-20T00:10:05.348Z,0.10
2018-11-20T00:12:59.338Z,0.00
2018-11-20T00:15:40.561Z,0.10
2018-11-20T00:18:26.397Z,0.20
2018-11-20T00:21:04.108Z,0.20
2018-11-20T00:23:55.086Z,0.30
2018-11-20T00:26:41.953Z,0.20
2018-11-20T00:29:28.735Z,0.40
2018-11-20T00:32:18.375Z,0.30
2018-11-20T00:35:10.545Z,0.30
2018-11-20T00:37:57.225Z,0.40
2018-11-20T00:40:49.956Z,0.30
2018-11-20T00:43:47.011Z,0.30
2018-11-20T00:46:50.404Z,0.40
2018-11-20T00:49:37.392Z,0.30
2018-11-20T00:52:24.275Z,0.40
2018-11-20T00:55:21.683Z,0.40
2018-11-20T00:58:08.396Z,0.40
2018-11-20T01:00:50.096Z,0.40
2018-11-20T01:03:36.868Z,0.50
2018-11-20T01:06:23.858Z,0.30
2018-11-20T01:09:18.161Z,0.40
2018-11-20T01:12:18.440Z,0.40
2018-11-20T01:15:05.335Z,0.50
2018-11-20T01:17:52.316Z,0.50
2018-11-20T01:20:40.669Z,0.50
2018-11-20T01:23:29.009Z,0.50
2018-11-20T01:26:16.042Z,0.60
2018-11-20T01:29:09.540Z,0.60
2018-11-20T01:31:57.885Z,0.60
2018-11-20T01:34:54.862Z,0.60
2018-11-20T01:37:41.543Z,0.60
2018-11-20T01:40:18.196Z,0.60
2018-11-20T01:43:00.483Z,0.60
2018-11-20T01:45:48.832Z,0.60
2018-11-20T01:48:28.347Z,0.70
2018-11-20T01:54:00.994Z,0.70
2018-11-20T01:56:58.033Z,0.70
2018-11-20T01:59:58.108Z,0.60
2018-11-20T02:02:44.739Z,0.70
2018-11-20T02:05:45.021Z,0.70
2018-11-20T02:08:31.993Z,0.70
2018-11-20T02:11:32.008Z,0.70
2018-11-20T02:14:21.133Z,0.90
2018-11-20T02:17:21.147Z,0.80
2018-11-20T02:20:13.943Z,0.80
2018-11-20T02:23:01.093Z,0.90
2018-11-20T02:25:47.843Z,0.90
2018-11-20T02:28:38.899Z,0.90
2018-11-20T02:31:25.755Z,0.90
2018-11-20T02:34:12.067Z,0.90
2018-11-20T02:37:12.113Z,1.00
2018-11-20T02:40:07.368Z,1.00
2018-11-20T02:42:53.236Z,1.00
2018-11-20T02:45:44.951Z,1.00
2018-11-20T02:48:42.525Z,1.00
2018-11-20T02:51:25.953Z,1.00
2018-11-20T02:54:06.912Z,1.00
2018-11-20T02:56:57.953Z,1.10
2018-11-20T02:59:44.776Z,1.10
2018-11-20T03:02:31.639Z,1.10
2018-11-20T03:05:18.685Z,1.10
2018-11-20T03:08:01.622Z,1.10
2018-11-20T03:10:48.306Z,1.10
2018-11-20T03:13:48.231Z,1.10
2018-11-20T03:16:39.072Z,1.10
2018-11-20T03:19:20.080Z,1.20
2018-11-20T03:22:11.277Z,1.20
2018-11-20T03:24:59.650Z,1.20
2018-11-20T03:27:46.178Z,1.30
2018-11-20T03:31:21.314Z,1.30
2018-11-20T03:34:03.318Z,1.30
2018-11-20T03:36:51.692Z,1.20
2018-11-20T03:39:38.306Z,1.30
2018-11-20T03:42:32.291Z,1.30
2018-11-20T03:45:22.551Z,1.30
2018-11-20T03:48:09.004Z,1.40
2018-11-20T03:50:57.492Z,1.30
2018-11-20T03:54:03.649Z,1.30
2018-11-20T03:56:55.010Z,1.30
2018-11-20T03:59:43.195Z,1.40
2018-11-20T04:02:30.230Z,1.40
2018-11-20T04:05:16.609Z,1.50
2018-11-20T04:08:03.225Z,1.40
2018-11-20T04:10:44.572Z,1.50
2018-11-20T04:13:53.354Z,1.50
2018-11-20T04:16:50.434Z,1.50
2018-11-20T04:19:32.746Z,1.50
2018-11-20T04:22:13.608Z,1.60
2018-11-20T04:25:02.026Z,1.60
2018-11-20T04:27:42.748Z,1.60
2018-11-20T04:31:10.590Z,1.60
2018-11-20T04:33:59.932Z,1.70
2018-11-20T04:36:57.691Z,1.70
2018-11-20T04:39:43.469Z,1.70
2018-11-20T04:42:30.244Z,1.70
2018-11-20T04:45:23.165Z,1.70
2018-11-20T04:48:12.275Z,1.70
2018-11-20T04:51:00.669Z,1.80
2018-11-20T04:53:44.204Z,1.80
2018-11-20T04:56:31.031Z,1.80
2018-11-20T04:59:11.779Z,1.70
2018-11-20T05:02:08.637Z,1.70
2018-11-20T05:04:59.989Z,1.70
2018-11-20T05:08:01.017Z,1.70
2018-11-20T05:10:52.171Z,1.70
2018-11-20T05:13:40.569Z,1.60
2018-11-20T05:16:17.440Z,1.60
2018-11-20T05:19:07.008Z,1.60
2018-11-20T05:22:00.170Z,1.60
2018-11-20T05:24:39.152Z,1.60
2018-11-20T05:27:19.605Z,1.60
2018-11-20T05:30:07.973Z,1.60
2018-11-20T05:33:02.295Z,1.70
2018-11-20T05:35:56.165Z,1.70
2018-11-20T05:38:36.631Z,1.70
2018-11-20T05:41:43.075Z,1.70
2018-11-20T05:44:25.183Z,1.70
2018-11-20T05:47:13.045Z,1.70
2018-11-20T05:50:00.124Z,1.70
2018-11-20T05:52:49.341Z,1.70
2018-11-20T05:55:49.491Z,1.70
2018-11-20T05:58:26.226Z,1.70
2018-11-20T06:01:29.372Z,1.70
2018-11-20T06:04:16.493Z,1.80
2018-11-20T06:07:17.048Z,1.70
2018-11-20T06:10:06.241Z,1.80
2018-11-20T06:12:54.708Z,1.70
2018-11-20T06:15:44.232Z,1.70
2018-11-20T06:21:28.877Z,1.50
2018-11-20T06:24:09.276Z,1.70
2018-11-20T06:26:56.371Z,1.70
2018-11-20T06:29:47.553Z,1.70
2018-11-20T06:32:38.921Z,1.70
2018-11-20T06:35:26.084Z,1.70
2018-11-20T06:38:12.929Z,1.70
2018-11-20T06:41:10.488Z,1.70
2018-11-20T06:43:58.204Z,1.70
2018-11-20T06:46:55.804Z,1.70
2018-11-20T06:49:41.234Z,1.70
2018-11-20T06:52:28.005Z,1.70
2018-11-20T06:55:14.862Z,1.70
2018-11-20T06:58:02.705Z,1.70
2018-11-20T07:00:54.142Z,1.70
2018-11-20T07:03:45.319Z,1.70
2018-11-20T07:06:31.924Z,1.70
2018-11-20T07:09:20.349Z,1.80
2018-11-20T07:12:17.308Z,1.80
2018-11-20T07:15:17.754Z,1.90
2018-11-20T07:18:11.920Z,1.90
2018-11-20T07:20:57.140Z,1.90
2018-11-20T07:23:42.736Z,1.90
2018-11-20T07:26:25.234Z,2.00
2018-11-20T07:29:08.790Z,2.00
2018-11-20T07:31:55.812Z,2.00
2018-11-20T07:37:29.811Z,2.10
2018-11-20T07:40:16.734Z,2.10
2018-11-20T07:43:04.054Z,2.10
2018-11-20T07:46:07.424Z,2.10
2018-11-20T07:48:53.242Z,2.10
2018-11-20T07:51:41.689Z,2.10
2018-11-20T07:54:28.394Z,2.20
2018-11-20T07:57:16.764Z,2.20
2018-11-20T08:00:14.095Z,2.30
2018-11-20T08:03:00.851Z,2.40
2018-11-20T08:05:56.039Z,2.50
2018-11-20T08:08:44.420Z,2.40
2018-11-20T08:11:44.730Z,2.50
2018-11-20T08:14:29.729Z,2.50
2018-11-20T08:17:20.993Z,2.60
2018-11-20T08:20:12.053Z,2.60
2018-11-20T08:23:00.445Z,2.60
2018-11-20T08:25:47.407Z,2.60
2018-11-20T08:28:34.082Z,2.60
2018-11-20T08:31:22.451Z,2.70
2018-11-20T08:34:25.913Z,2.80
2018-11-20T08:37:06.634Z,2.80
2018-11-20T08:40:03.615Z,2.80
2018-11-20T08:42:50.309Z,2.80
2018-11-20T08:45:37.505Z,2.90
2018-11-20T08:48:25.944Z,2.90
2018-11-20T08:51:20.175Z,2.90
2018-11-20T08:54:11.396Z,3.00
2018-11-20T08:56:58.163Z,3.00
2018-11-20T08:59:43.206Z,3.00
2018-11-20T09:02:26.001Z,2.90
2018-11-20T09:05:23.477Z,2.90
2018-11-20T09:08:11.819Z,3.00
2018-11-20T09:11:05.635Z,3.00
2018-11-20T09:13:48.577Z,3.00
2018-11-20T09:16:42.461Z,3.10
2018-11-20T09:19:36.697Z,3.20
2018-11-20T09:22:23.431Z,3.30
2018-11-20T09:25:14.639Z,3.50
2018-11-20T09:28:11.077Z,3.50
2018-11-20T09:30:50.631Z,3.50
2018-11-20T09:33:31.539Z,3.60
2018-11-20T09:36:18.463Z,3.60
2018-11-20T09:39:06.804Z,3.60
2018-11-20T09:41:55.167Z,3.70
2018-11-20T09:45:08.797Z,3.70
2018-11-20T09:47:57.141Z,3.80
2018-11-20T09:50:43.974Z,3.90
2018-11-20T09:53:32.332Z,3.90
2018-11-20T09:56:23.752Z,3.90
2018-11-20T09:59:10.529Z,4.00
2018-11-20T10:01:58.847Z,4.00
2018-11-20T10:04:45.592Z,4.10
2018-11-20T10:07:32.565Z,4.20
2018-11-20T10:10:39.139Z,4.20
2018-11-20T10:13:25.949Z,4.20
2018-11-20T10:16:12.974Z,4.30
2018-11-20T10:18:59.942Z,4.30
2018-11-20T10:21:46.660Z,4.40
2018-11-20T10:24:38.034Z,4.40
2018-11-20T10:27:35.460Z,4.50
2018-11-20T10:30:22.297Z,4.50
2018-11-20T10:33:09.014Z,4.40
2018-11-20T10:35:53.277Z,4.50
2018-11-20T10:38:47.384Z,4.50
2018-11-20T10:41:39.242Z,4.50
2018-11-20T10:44:36.533Z,4.50
2018-11-20T10:47:22.863Z,4.50
2018-11-20T10:50:26.218Z,4.60
2018-11-20T10:53:05.200Z,4.70
2018-11-20T10:56:00.032Z,4.70
2018-11-20T10:58:49.980Z,4.80
2018-11-20T11:01:40.927Z,4.80
2018-11-20T11:04:29.859Z,4.90
2018-11-20T11:07:28.178Z,4.90
2018-11-20T11:10:25.444Z,5.00
2018-11-20T11:13:12.619Z,5.10
2018-11-20T11:16:19.498Z,5.10
2018-11-20T11:19:06.486Z,5.10
2018-11-20T11:22:06.747Z,5.00
2018-11-20T11:25:01.252Z,5.00
2018-11-20T11:27:52.431Z,5.10
2018-11-20T11:30:39.173Z,5.10
2018-11-20T11:33:42.602Z,5.20
2018-11-20T11:36:33.506Z,5.30
2018-11-20T11:39:10.111Z,5.20
2018-11-20T11:42:04.062Z,5.30
2018-11-20T11:44:50.644Z,5.30
2018-11-20T11:47:37.395Z,5.30
2018-11-20T11:50:24.294Z,5.40
2018-11-20T11:53:18.353Z,5.50
2018-11-20T11:56:18.879Z,5.60
2018-11-20T11:59:05.858Z,5.60
2018-11-20T12:05:03.284Z,5.50
2018-11-20T12:07:50.134Z,5.50
2018-11-20T12:10:41.768Z,5.50
2018-11-20T12:13:34.346Z,5.70
2018-11-20T12:16:22.742Z,5.90
2018-11-20T12:19:29.280Z,6.30
2018-11-20T12:22:24.620Z,6.50
2018-11-20T12:25:14.223Z,6.60
2018-11-20T12:28:01.258Z,6.60
2018-11-20T12:31:01.345Z,6.50
2018-11-20T12:33:52.527Z,6.40
2018-11-20T12:36:45.695Z,6.60
2018-11-20T12:39:32.330Z,6.60
2018-11-20T12:42:23.664Z,6.60
2018-11-20T12:45:16.497Z,6.50
2018-11-20T12:48:04.311Z,6.60
2018-11-20T12:50:50.967Z,6.40
2018-11-20T12:53:49.353Z,6.50
2018-11-20T12:56:37.741Z,6.50
2018-11-20T12:59:44.209Z,6.50
2018-11-20T13:02:31.104Z,6.50
2018-11-20T13:05:21.165Z,6.50
2018-11-20T13:08:31.204Z,6.50
2018-11-20T13:11:24.949Z,6.40
2018-11-20T13:14:11.757Z,6.60
2018-11-20T13:17:00.133Z,6.60
2018-11-20T13:20:08.126Z,6.60
2018-11-20T13:22:55.673Z,6.70
2018-11-20T13:26:02.998Z,6.60
2018-11-20T13:28:51.382Z,6.50
2018-11-20T13:31:40.874Z,6.50
2018-11-20T13:34:47.829Z,6.40
2018-11-20T13:37:35.619Z,6.20
2018-11-20T13:40:31.651Z,6.10
2018-11-20T13:43:14.568Z,6.10
2018-11-20T13:45:57.056Z,6.00
2018-11-20T13:49:03.437Z,5.90
2018-11-20T13:51:45.133Z,5.70
2018-11-20T13:54:32.905Z,5.50
2018-11-20T13:57:23.787Z,5.40
2018-11-20T14:00:18.082Z,5.30
2018-11-20T14:03:10.147Z,5.20
2018-11-20T14:06:13.207Z,5.00
2018-11-20T14:09:13.785Z,4.80
2018-11-20T14:12:21.573Z,4.80
2018-11-20T14:15:02.402Z,4.60
2018-11-20T14:17:59.790Z,4.50
2018-11-20T14:21:04.249Z,4.40
2018-11-20T14:23:50.905Z,4.40
2018-11-20T14:26:38.442Z,4.20
2018-11-20T14:29:35.785Z,4.20
2018-11-20T14:32:17.837Z,4.10
2018-11-20T14:35:07.041Z,4.10
2018-11-20T14:37:56.888Z,4.10
2018-11-20T14:40:45.677Z,4.00
2018-11-20T14:43:43.729Z,4.00
2018-11-20T14:46:35.816Z,3.90
2018-11-20T14:49:32.956Z,3.90
2018-11-20T14:52:20.702Z,3.80
2018-11-20T14:55:20.360Z,3.80
2018-11-20T14:58:26.488Z,3.70
2018-11-20T15:01:14.892Z,3.70
2018-11-20T15:04:08.342Z,3.60
2018-11-20T15:06:56.248Z,3.60
2018-11-20T15:09:52.756Z,3.50
2018-11-20T15:12:36.248Z,3.50
2018-11-20T15:15:20.818Z,3.30
2018-11-20T15:18:09.242Z,3.30
2018-11-20T15:23:41.354Z,3.30
2018-11-20T15:26:30.688Z,2.90
2018-11-20T15:29:25.073Z,3.10
2018-11-20T15:32:22.158Z,3.00
2018-11-20T15:35:25.586Z,2.80
2018-11-20T15:38:20.493Z,2.80
2018-11-20T15:41:07.278Z,2.90
2018-11-20T15:43:48.684Z,2.90
2018-11-20T15:46:35.704Z,2.80
2018-11-20T15:49:35.250Z,2.70
2018-11-20T15:52:32.406Z,2.50
2018-11-20T15:55:11.206Z,2.40
2018-11-20T15:57:57.901Z,2.60
2018-11-20T16:00:58.182Z,2.50
2018-11-20T16:03:48.340Z,2.10
2018-11-20T16:06:35.907Z,2.30
2018-11-20T16:09:26.104Z,2.30
2018-11-20T16:12:14.546Z,2.20
2018-11-20T16:15:08.577Z,1.70
2018-11-20T16:18:08.775Z,2.60
2018-11-20T16:20:56.181Z,2.00
2018-11-20T16:26:46.532Z,1.70
2018-11-20T16:29:38.608Z,1.90
2018-11-20T16:35:30.297Z,1.90
2018-11-20T16:41:03.578Z,1.80
2018-11-20T16:44:04.614Z,2.40
2018-11-20T16:46:52.249Z,1.70
2018-11-20T16:49:39.355Z,1.70
2018-11-20T16:52:28.071Z,1.60
2018-11-20T16:55:28.824Z,1.50
2018-11-20T16:58:35.228Z,1.50
2018-11-20T17:01:23.239Z,1.40
2018-11-20T17:04:21.004Z,1.20
2018-11-20T17:07:07.929Z,1.30
2018-11-20T17:09:55.793Z,1.10
2018-11-20T17:12:43.515Z,1.20
2018-11-20T17:15:34.273Z,1.20
2018-11-20T17:18:20.149Z,1.10
2018-11-20T17:21:09.567Z,1.00
2018-11-20T17:23:56.294Z,1.00
2018-11-20T17:26:43.927Z,0.90
2018-11-20T17:29:30.715Z,0.90
2018-11-20T17:32:18.719Z,0.90
2018-11-20T17:35:05.590Z,0.70
2018-11-20T17:37:54.106Z,0.60
2018-11-20T17:40:57.396Z,0.80
2018-11-20T17:43:48.427Z,0.70
2018-11-20T17:46:37.435Z,0.60
2018-11-20T17:49:40.744Z,0.60
2018-11-20T17:52:47.124Z,0.90
2018-11-20T17:55:54.059Z,0.60
2018-11-20T18:01:21.400Z,0.50
2018-11-20T18:04:02.129Z,0.40
2018-11-20T18:07:02.400Z,0.40
2018-11-20T18:09:50.742Z,0.40
2018-11-20T18:12:37.458Z,0.30
2018-11-20T18:15:27.134Z,0.40
2018-11-20T18:18:12.332Z,0.10
2018-11-20T18:21:04.870Z,0.10
2018-11-20T18:23:56.656Z,0.20
2018-11-20T18:26:48.843Z,0.10
2018-11-20T18:32:39.863Z,-0.10
2018-11-20T18:35:27.524Z,0.00
2018-11-20T18:38:33.439Z,-0.20
2018-11-20T18:41:22.985Z,0.00
2018-11-20T18:44:11.535Z,0.20
2018-11-20T18:47:08.732Z,0.60
2018-11-20T18:49:52.222Z,0.00
2018-11-20T18:52:49.698Z,0.00
2018-11-20T18:55:38.460Z,0.20
2018-11-20T19:01:25.448Z,0.00
2018-11-20T19:04:12.902Z,0.00
2018-11-20T19:06:57.878Z,0.00
2018-11-20T19:15:50.356Z,0.00
2018-11-20T19:18:39.254Z,-0.20
2018-11-20T19:21:31.925Z,-0.10
2018-11-20T19:29:54.788Z,-0.30
2018-11-20T19:32:49.968Z,-0.10
2018-11-20T19:35:59.432Z,-0.30
2018-11-20T19:38:50.847Z,-0.20
2018-11-20T19:41:39.051Z,-0.30
2018-11-20T19:44:44.429Z,-0.20
2018-11-20T19:47:38.921Z,-0.20
2018-11-20T19:57:59.178Z,0.60
2018-11-20T20:41:55.771Z,1.40
2018-11-20T20:54:24.804Z,1.10
2018-11-20T21:06:50.633Z,0.90
2018-11-20T21:09:57.301Z,1.20
2018-11-20T21:41:09.608Z,1.10
2018-11-20T21:47:26.054Z,1.40
2018-11-20T21:53:40.517Z,1.30
2018-11-20T21:56:48.318Z,1.40
2018-11-20T22:51:46.945Z,1.60
2018-11-20T23:40:02.564Z,1.60
2018-11-20T23:55:01.748Z,1.60
